Flight Track Log - Related Links

Times and Time Zones

All times are in EDT time to prevent confusion due to time zone crossing. See the AAL1714 flight status page for this flight to view local times or setup timezone preferences in your user account.

Time Position Orientation Groundspeed Altitude Reporting Facility
EDT Latitude Longitude Course Direction KTS MPH feet Rate Location/Type
Sun 06:52:28 PM 33.9344 -118.4375 59° Northeast 172 198 1,400  Level Los Angeles Center
Sun 06:53:30 PM 33.9156 -118.5178 254° West 230 265 3,000 1,887 Climbing Los Angeles Center
Sun 06:54:00 PM 34.0870 -118.1494 54° Northeast  Level FlightAware Approximate
Sun 06:54:32 PM 33.8661 -118.5697 221° Southwest 270 311 5,300  Level Los Angeles Center
Sun 06:55:00 PM 34.1429 -118.0476 59° Northeast  Level FlightAware Approximate
Sun 06:55:35 PM 33.8403 -118.4925 112° Southeast 278 320 8,200  Level Los Angeles Center
Sun 06:56:00 PM 34.1952 -117.9429 59° Northeast  Level FlightAware Approximate
Sun 06:56:36 PM 33.9047 -118.4481 30° Northeast 285 328 10,800  Level Los Angeles Center
Sun 06:57:00 PM 34.2556 -117.8554 59° Northeast  Level FlightAware Approximate
Sun 06:57:38 PM 33.9719 -118.3650 46° Northeast 355 409 12,900  Level Los Angeles Center
Sun 06:58:40 PM 34.0314 -118.2594 56° Northeast 374 430 15,700 2,613 Climbing Los Angeles Center
Sun 06:59:42 PM 34.0950 -118.1486 55° Northeast 395 455 18,300 2,758 Climbing Los Angeles Center
Sun 07:00:44 PM 34.1731 -118.0103 56° Northeast 414 476 21,400 2,565 Climbing Los Angeles Center
Sun 07:01:46 PM 34.2397 -117.8911 56° Northeast 425 489 23,600 1,968 Climbing Los Angeles Center
Sun 07:02:49 PM 34.3089 -117.7686 56° Northeast 438 504 25,500 1,632 Climbing Los Angeles Center
Sun 07:03:51 PM 34.3794 -117.6406 56° Northeast 454 522 27,000 726 Climbing Los Angeles Center
Sun 07:04:53 PM 34.4575 -117.5003 56° Northeast 474 545 27,000  Level Los Angeles Center
Sun 07:05:55 PM 34.5303 -117.3644 57° Northeast 481 554 27,000  Level Los Angeles Center
Sun 07:06:57 PM 34.6042 -117.2311 56° Northeast 481 554 27,000  Level Los Angeles Center
Sun 07:07:59 PM 34.6919 -117.0714 56° Northeast 479 551 27,000  Level Los Angeles Center
Sun 07:09:01 PM 34.7653 -116.9389 56° Northeast 477 549 27,000  Level Los Angeles Center
Sun 07:10:03 PM 34.8383 -116.8022 57° Northeast 483 556 27,000 -194 Level Los Angeles Center
Sun 07:11:05 PM 34.9114 -116.6678 56° Northeast 477 549 26,600 -677 Descending Los Angeles Center
Sun 07:12:07 PM 34.9883 -116.5436 53° Northeast 468 539 25,600 -1,113 Descending Los Angeles Center
Sun 07:13:09 PM 35.0906 -116.4158 46° Northeast 442 509 24,300 -768 Descending Los Angeles Center
Sun 07:14:12 PM 35.1739 -116.3114 46° Northeast 436 502 24,000 -1,008 Descending Los Angeles Center
Sun 07:15:14 PM 35.2575 -116.2075 45° Northeast 430 495 22,200 -1,742 Descending Los Angeles Center
Sun 07:16:16 PM 35.3375 -116.1061 46° Northeast 419 482 20,400 -1,742 Descending Los Angeles Center
Sun 07:17:18 PM 35.4122 -116.0092 47° Northeast 397 457 18,600 -1,742 Descending Los Angeles Center
Sun 07:18:20 PM 35.4842 -115.9186 46° Northeast 379 436 16,800 -2,000 Descending Los Angeles Center
Sun 07:18:42 PM 35.5239 -115.8714 44° Northeast 371 427 15,800 -2,087 Descending Los Angeles Center
Sun 07:19:06 PM 35.5494 -115.8394 45° Northeast 362 417 15,200 -1,200 Descending Los Angeles Center
Sun 07:19:22 PM 35.5564 -115.8275 54° Northeast 362 417 15,000 -1,574 Descending Los Angeles Center
Sun 07:20:07 PM 35.6156 -115.7550 45° Northeast 345 397 13,600 -1,645 Descending Los Angeles Center
Sun 07:20:24 PM 35.6350 -115.7278 49° Northeast 345 397 13,300 -689 Descending Los Angeles Center
Sun 07:21:08 PM 35.6781 -115.6744 45° Northeast 326 375 12,900 -387 Descending Los Angeles Center
Sun 07:21:26 PM 35.6967 -115.6500 47° Northeast 325 374 12,900  Level Los Angeles Center
Sun 07:22:03 PM 35.7356 -115.6003 46° Northeast 312 359 12,900  Level Los Angeles Center
Sun 07:22:28 PM 35.7656 -115.5739 36° Northeast 308 354 12,900  Level Los Angeles Center
Sun 07:23:04 PM 35.8136 -115.5725 North 299 344 12,900  Level Los Angeles Center
Sun 07:23:30 PM 35.8494 -115.5681 North 297 342 12,900  Level Los Angeles Center
Sun 07:24:05 PM 35.9006 -115.5656 North 299 344 12,900  Level Los Angeles Center
Sun 07:24:32 PM 35.9325 -115.5619 North 299 344 12,900  Level Los Angeles Center
Sun 07:25:12 PM 35.9906 -115.5522 North 296 341 12,900 -857 Level Los Angeles Center
Sun 07:25:35 PM 36.0147 -115.5281 39° Northeast 298 343 12,000 -1,869 Descending Los Angeles Center
Sun 07:26:13 PM 36.0250 -115.4614 79° East 319 367 11,000 -1,065 Descending Los Angeles Center
Sun 07:26:37 PM 36.0267 -115.4231 87° East 311 358 10,900 -295 Descending Los Angeles Center
Sun 07:27:14 PM 36.0283 -115.3567 88° East 293 337 10,700 -484 Descending Los Angeles Center
Sun 07:27:39 PM 36.0283 -115.3244 90° East 296 341 10,400 -1,082 Descending Los Angeles Center
Sun 07:28:15 PM 36.0206 -115.2608 99° East 283 326 9,600 -1,065 Descending Los Angeles Center
Sun 07:28:41 PM 36.0200 -115.2297 91° East 284 327 9,300 -984 Descending Los Angeles Center
Sun 07:29:16 PM 36.0142 -115.1619 96° East 276 318 8,600 -871 Descending Los Angeles Center
Sun 07:29:43 PM 36.0136 -115.1353 91° East 279 321 8,400 -764 Descending Los Angeles Center
Sun 07:30:11 PM 36.0108 -115.0861 94° East 246 283 7,900 -484 Descending Los Angeles Center
Sun 07:30:45 PM 36.0078 -115.0547 97° East 249 287 7,900 -545 Level Los Angeles Center
Sun 07:31:17 PM 36.0061 -115.0053 92° East 208 239 7,300 -1,161 Descending Los Angeles Center
Sun 07:31:47 PM 36.0044 -114.9686 93° East 220 253 6,700 -982 Descending Los Angeles Center
Sun 07:32:12 PM 36.0019 -114.9375 96° East 208 239 6,400 -720 Descending Los Angeles Center

Login

Don't have an account? Register now (free) for customized features, flight alerts, and more!